Time;durP1;ratioP1;P1;durP2;ratioP2;P2;SDS_P1;SDS_P2;PMS_P1;PMS_P2;Temp;Humidity;BMP_temperature;BMP_pressure;BME280_temperature;BME280_humidity;BME280_pressure;Samples;Min_cycle;Max_cycle;Signal;HPM_P1;HPM_P2
2023/10/29 00:00:44;;;;;;;0.50;0.13;;;10.90;99.90;;;;;;5015534;28;20042;-65
2023/10/29 00:03:10;;;;;;;0.22;0.20;;;11.00;99.90;;;;;;5014225;28;20041;-65
2023/10/29 00:05:36;;;;;;;0.22;0.20;;;11.00;99.90;;;;;;5016762;28;20072;-67
2023/10/29 00:08:02;;;;;;;0.30;0.20;;;11.00;99.90;;;;;;5004497;28;20061;-66
2023/10/29 00:10:28;;;;;;;0.35;0.20;;;11.10;99.90;;;;;;5017323;28;20046;-66
2023/10/29 00:12:54;;;;;;;0.55;0.20;;;11.10;99.90;;;;;;5014544;28;20034;-67
2023/10/29 00:15:20;;;;;;;0.38;0.38;;;11.10;99.90;;;;;;5004491;28;20485;-67
2023/10/29 00:17:46;;;;;;;0.75;0.30;;;11.10;99.90;;;;;;5019027;28;20037;-66
2023/10/29 00:20:12;;;;;;;0.28;0.28;;;11.10;99.90;;;;;;4995409;28;20045;-67
2023/10/29 00:22:37;;;;;;;0.28;0.20;;;11.10;99.90;;;;;;4995818;28;20501;-66
2023/10/29 00:25:03;;;;;;;0.40;0.38;;;11.10;99.90;;;;;;5020570;28;20053;-67
2023/10/29 00:27:29;;;;;;;0.25;0.20;;;11.10;99.90;;;;;;5001962;28;20411;-66
2023/10/29 00:29:55;;;;;;;2.15;0.47;;;11.10;99.90;;;;;;4997293;28;20076;-67
2023/10/29 00:32:21;;;;;;;0.77;0.40;;;11.10;99.90;;;;;;4997009;28;20056;-66
2023/10/29 00:34:48;;;;;;;0.20;0.20;;;11.20;99.90;;;;;;5003184;28;20060;-66
2023/10/29 00:37:14;;;;;;;0.20;0.10;;;11.10;99.90;;;;;;5024841;28;20112;-66
2023/10/29 00:39:40;;;;;;;0.20;0.10;;;11.20;99.90;;;;;;5015050;28;20038;-66
2023/10/29 00:42:06;;;;;;;0.35;0.17;;;11.20;99.90;;;;;;5015016;28;20049;-67
2023/10/29 00:44:32;;;;;;;0.20;0.20;;;11.20;99.90;;;;;;5018393;28;20037;-66
2023/10/29 00:46:58;;;;;;;0.35;0.20;;;11.20;99.90;;;;;;5017460;28;20041;-65
2023/10/29 00:49:24;;;;;;;0.40;0.20;;;11.30;99.90;;;;;;5012533;28;20096;-66
2023/10/29 00:51:50;;;;;;;0.30;0.10;;;11.30;99.90;;;;;;5016393;28;20308;-66
2023/10/29 00:54:17;;;;;;;0.08;0.08;;;11.30;99.90;;;;;;5018466;28;20045;-65
2023/10/29 00:56:42;;;;;;;0.28;0.20;;;11.40;99.90;;;;;;5013501;28;20038;-66
2023/10/29 00:59:11;;;;;;;0.20;0.20;;;11.40;99.90;;;;;;5011206;28;20405;-66
2023/10/29 01:01:37;;;;;;;0.52;0.30;;;11.40;99.90;;;;;;5019601;28;20208;-66
2023/10/29 01:04:04;;;;;;;0.30;0.15;;;11.40;99.90;;;;;;5021427;28;20041;-65
2023/10/29 01:06:38;;;;;;;0.20;0.20;;;11.40;99.90;;;;;;4998560;28;20502;-66
2023/10/29 01:09:06;;;;;;;0.30;0.10;;;11.50;99.90;;;;;;5011885;28;20522;-66
2023/10/29 01:11:32;;;;;;;0.68;0.40;;;11.50;99.90;;;;;;5018898;28;20030;-66
2023/10/29 01:13:58;;;;;;;0.30;0.20;;;11.50;99.90;;;;;;5019229;28;20046;-66
2023/10/29 01:16:24;;;;;;;0.45;0.40;;;11.50;99.90;;;;;;5015674;28;20056;-66
2023/10/29 01:18:50;;;;;;;0.30;0.30;;;11.60;99.90;;;;;;5012532;28;20093;-66
2023/10/29 01:21:16;;;;;;;0.68;0.30;;;11.60;99.90;;;;;;5019832;28;20497;-66
2023/10/29 01:23:41;;;;;;;0.10;0.10;;;11.60;99.90;;;;;;5019373;28;20052;-66
2023/10/29 01:26:07;;;;;;;0.45;0.30;;;11.60;99.90;;;;;;5013756;28;20046;-66
2023/10/29 01:28:33;;;;;;;0.50;0.20;;;11.60;99.90;;;;;;4995398;28;20033;-66
2023/10/29 01:30:59;;;;;;;0.45;0.30;;;11.60;99.90;;;;;;5019282;28;20048;-66
2023/10/29 01:33:26;;;;;;;0.70;0.30;;;11.70;99.90;;;;;;5002831;28;20176;-66
2023/10/29 01:35:52;;;;;;;0.52;0.47;;;11.60;99.90;;;;;;5015714;28;20041;-66
2023/10/29 01:38:17;;;;;;;2.15;0.45;;;11.70;99.90;;;;;;5012557;28;20041;-66
2023/10/29 01:40:43;;;;;;;0.28;0.20;;;11.70;99.90;;;;;;5017009;28;20432;-66
2023/10/29 01:43:09;;;;;;;0.30;0.30;;;11.70;99.90;;;;;;5021370;28;20144;-66
2023/10/29 01:45:37;;;;;;;0.70;0.20;;;11.70;99.90;;;;;;5024601;28;20069;-66
2023/10/29 01:48:03;;;;;;;0.50;0.30;;;11.80;99.90;;;;;;4996710;28;20093;-66
2023/10/29 01:50:29;;;;;;;0.80;0.20;;;11.70;99.90;;;;;;5016472;28;20045;-66
2023/10/29 01:52:55;;;;;;;0.40;0.28;;;11.70;99.90;;;;;;5020248;28;20034;-66
2023/10/29 01:55:21;;;;;;;0.40;0.22;;;11.80;99.90;;;;;;5025860;28;20481;-66
2023/10/29 01:57:46;;;;;;;0.28;0.20;;;11.80;99.90;;;;;;5015156;28;20046;-66
2023/10/29 02:00:13;;;;;;;0.05;0.05;;;11.80;99.90;;;;;;5017674;28;20114;-66
2023/10/29 02:02:39;;;;;;;0.80;0.25;;;11.80;99.90;;;;;;5023106;28;20155;-67
2023/10/29 02:05:05;;;;;;;0.22;0.10;;;11.80;99.90;;;;;;5010522;28;20117;-66
2023/10/29 02:07:31;;;;;;;1.48;0.47;;;11.80;99.90;;;;;;5014983;28;20095;-66
2023/10/29 02:09:56;;;;;;;0.35;0.17;;;11.90;99.90;;;;;;5018328;28;20053;-66
2023/10/29 02:12:22;;;;;;;3.20;0.15;;;11.90;99.90;;;;;;5024316;28;20449;-66
2023/10/29 02:14:48;;;;;;;1.65;0.20;;;11.80;99.90;;;;;;5014556;28;20041;-66
2023/10/29 02:17:13;;;;;;;0.75;0.22;;;11.90;99.90;;;;;;5021853;28;20386;-66
2023/10/29 02:19:39;;;;;;;0.47;0.30;;;11.90;99.90;;;;;;5019283;28;20040;-66
2023/10/29 02:22:05;;;;;;;0.32;0.13;;;11.90;99.90;;;;;;5020220;28;20032;-66
2023/10/29 02:24:31;;;;;;;0.25;0.17;;;11.80;99.90;;;;;;5013222;28;20034;-66
2023/10/29 02:26:57;;;;;;;0.17;0.13;;;11.80;99.90;;;;;;5014261;28;20102;-66
2023/10/29 02:29:22;;;;;;;0.40;0.20;;;11.80;99.90;;;;;;5021876;28;20040;-66
2023/10/29 02:31:48;;;;;;;0.22;0.15;;;11.80;99.90;;;;;;5022711;28;20033;-66
2023/10/29 02:34:14;;;;;;;1.23;0.20;;;11.80;99.90;;;;;;5019715;28;20026;-66
2023/10/29 02:36:39;;;;;;;0.45;0.20;;;11.80;99.90;;;;;;5012736;28;20042;-66
2023/10/29 02:39:06;;;;;;;0.15;0.08;;;11.70;99.90;;;;;;5021702;28;20029;-66
2023/10/29 02:41:32;;;;;;;0.28;0.20;;;11.80;99.90;;;;;;4997207;28;20050;-66
2023/10/29 02:43:58;;;;;;;0.20;0.10;;;11.80;99.90;;;;;;5015866;28;20407;-65
2023/10/29 02:46:26;;;;;;;0.38;0.32;;;11.90;99.90;;;;;;5015067;28;20058;-66
2023/10/29 02:48:52;;;;;;;0.30;0.17;;;11.80;99.90;;;;;;5022057;28;20398;-65
2023/10/29 02:51:18;;;;;;;0.40;0.20;;;11.80;99.90;;;;;;5015146;28;20041;-66
2023/10/29 02:53:43;;;;;;;0.80;0.20;;;11.80;99.90;;;;;;5011490;28;20060;-66
2023/10/29 02:56:09;;;;;;;3.88;0.40;;;11.80;99.90;;;;;;5017146;28;20041;-66
2023/10/29 02:58:35;;;;;;;0.20;0.10;;;11.90;99.90;;;;;;5018191;28;20048;-66
2023/10/29 03:01:08;;;;;;;0.20;0.05;;;11.90;99.90;;;;;;5016150;28;20492;-66
2023/10/29 03:03:35;;;;;;;1.13;0.30;;;11.90;99.90;;;;;;5016542;28;20466;-66
2023/10/29 03:06:08;;;;;;;0.32;0.05;;;11.90;99.90;;;;;;5015211;28;20120;-66
2023/10/29 03:08:34;;;;;;;0.10;0.10;;;11.90;99.90;;;;;;5017513;28;20061;-66
2023/10/29 03:11:00;;;;;;;0.13;0.10;;;12.00;99.90;;;;;;5012447;28;20050;-66
2023/10/29 03:13:26;;;;;;;0.55;0.20;;;12.00;99.90;;;;;;5010533;28;20486;-66
2023/10/29 03:15:51;;;;;;;0.32;0.10;;;12.00;99.90;;;;;;5016893;28;20045;-66
2023/10/29 03:18:17;;;;;;;2.08;0.68;;;12.00;99.90;;;;;;5004150;28;20176;-66
2023/10/29 03:20:43;;;;;;;2.55;0.65;;;12.10;99.90;;;;;;5015526;28;20038;-66
2023/10/29 03:23:09;;;;;;;0.63;0.20;;;12.10;99.90;;;;;;5014279;28;20033;-66
2023/10/29 03:25:35;;;;;;;0.30;0.10;;;12.10;99.90;;;;;;5026030;28;20034;-66
2023/10/29 03:28:01;;;;;;;0.08;0.08;;;12.10;99.90;;;;;;5020249;28;20064;-66
2023/10/29 03:30:26;;;;;;;1.35;0.10;;;12.10;99.90;;;;;;5015187;28;20037;-66
2023/10/29 03:32:52;;;;;;;1.08;0.25;;;12.20;99.90;;;;;;5014886;28;20037;-66
2023/10/29 03:35:18;;;;;;;3.30;0.28;;;12.20;99.90;;;;;;5023195;28;20056;-66
2023/10/29 03:37:44;;;;;;;0.15;0.08;;;12.20;99.90;;;;;;5025809;28;20037;-66
2023/10/29 03:40:10;;;;;;;2.25;0.25;;;12.20;99.90;;;;;;5018926;28;20048;-66
2023/10/29 03:42:35;;;;;;;0.10;0.00;;;12.20;99.90;;;;;;5015800;28;20354;-66
2023/10/29 03:45:03;;;;;;;0.17;0.05;;;12.20;99.90;;;;;;5019950;28;20420;-66
2023/10/29 03:47:28;;;;;;;0.00;0.00;;;12.20;99.90;;;;;;5007752;28;20547;-66
2023/10/29 03:49:55;;;;;;;0.20;0.05;;;12.20;99.90;;;;;;5017488;28;20044;-66
2023/10/29 03:52:22;;;;;;;0.17;0.00;;;12.20;99.90;;;;;;5015508;28;20045;-66
2023/10/29 03:54:48;;;;;;;0.52;0.00;;;12.30;99.90;;;;;;5020754;28;20049;-66
2023/10/29 03:57:14;;;;;;;0.20;0.20;;;12.30;99.90;;;;;;5004677;28;20156;-66
2023/10/29 03:59:40;;;;;;;0.10;0.05;;;12.30;99.90;;;;;;5026836;28;20076;-66
2023/10/29 04:02:06;;;;;;;0.00;0.00;;;12.30;99.90;;;;;;5020381;28;20501;-66
2023/10/29 04:04:35;;;;;;;0.20;0.17;;;12.40;99.90;;;;;;5020167;28;20109;-66
2023/10/29 04:07:02;;;;;;;0.15;0.10;;;12.40;99.90;;;;;;5023745;28;20494;-66
2023/10/29 04:09:28;;;;;;;0.05;0.05;;;12.40;99.90;;;;;;5013036;28;20175;-67
2023/10/29 04:11:54;;;;;;;0.10;0.10;;;12.50;99.90;;;;;;5016355;28;20040;-67
2023/10/29 04:14:20;;;;;;;0.85;0.10;;;12.50;99.90;;;;;;5021231;28;20038;-67
2023/10/29 04:16:45;;;;;;;1.60;0.20;;;12.50;99.90;;;;;;5025501;28;20081;-67
2023/10/29 04:19:11;;;;;;;0.28;0.10;;;12.50;99.90;;;;;;5013365;28;20474;-66
2023/10/29 04:21:37;;;;;;;0.45;0.10;;;12.50;99.90;;;;;;5015245;28;20427;-67
2023/10/29 04:24:03;;;;;;;0.10;0.03;;;12.50;99.90;;;;;;5003692;28;20049;-67
2023/10/29 04:26:29;;;;;;;0.38;0.20;;;12.50;99.90;;;;;;5019113;28;20109;-66
2023/10/29 04:28:54;;;;;;;0.43;0.10;;;12.50;99.90;;;;;;5013381;28;20567;-67
2023/10/29 04:31:20;;;;;;;2.50;0.35;;;12.50;99.90;;;;;;5016758;28;20489;-67
2023/10/29 04:33:48;;;;;;;0.20;0.10;;;12.50;99.90;;;;;;5000770;28;20052;-66
2023/10/29 04:36:22;;;;;;;0.90;0.15;;;12.40;99.90;;;;;;5020835;28;20095;-66
2023/10/29 04:38:48;;;;;;;0.07;0.07;;;12.50;99.90;;;;;;5013065;28;20379;-67
2023/10/29 04:41:14;;;;;;;0.10;0.10;;;12.50;99.90;;;;;;5017306;28;20053;-67
2023/10/29 04:43:43;;;;;;;0.25;0.20;;;12.50;99.90;;;;;;5018648;28;20072;-66
2023/10/29 04:46:15;;;;;;;0.03;0.03;;;12.50;99.90;;;;;;5000819;28;20050;-67
2023/10/29 04:48:41;;;;;;;0.40;0.10;;;12.50;99.90;;;;;;5021768;28;20034;-66
2023/10/29 04:51:07;;;;;;;2.38;0.03;;;12.50;99.90;;;;;;5015598;28;20100;-67
2023/10/29 04:53:37;;;;;;;0.00;0.00;;;12.50;99.90;;;;;;5017988;28;20046;-66
2023/10/29 04:56:03;;;;;;;0.10;0.00;;;12.40;99.90;;;;;;5013209;28;20817;-66
2023/10/29 04:58:33;;;;;;;0.00;0.00;;;12.30;99.90;;;;;;4999610;28;20041;-66
2023/10/29 05:00:59;;;;;;;0.03;0.00;;;12.20;99.90;;;;;;4997963;28;20053;-67
2023/10/29 05:03:27;;;;;;;0.73;0.10;;;12.10;99.90;;;;;;5019234;28;20044;-67
2023/10/29 05:05:54;;;;;;;0.17;0.10;;;12.00;99.90;;;;;;5015270;28;20053;-67
2023/10/29 05:08:20;;;;;;;3.20;0.10;;;11.90;99.90;;;;;;4997736;28;20077;-67
2023/10/29 05:10:46;;;;;;;0.13;0.00;;;11.80;99.90;;;;;;5023033;28;20536;-66
2023/10/29 05:13:12;;;;;;;2.92;0.13;;;11.80;99.90;;;;;;5017410;28;20069;-67
2023/10/29 05:15:38;;;;;;;0.88;0.10;;;11.80;99.90;;;;;;5012665;28;20143;-67
2023/10/29 05:18:04;;;;;;;0.00;0.00;;;11.90;99.90;;;;;;5014359;28;20033;-66
2023/10/29 05:20:29;;;;;;;1.80;0.20;;;11.90;99.90;;;;;;5018674;28;20052;-66
2023/10/29 05:22:55;;;;;;;0.00;0.00;;;11.90;99.90;;;;;;5020957;28;20478;-66
2023/10/29 05:25:21;;;;;;;0.15;0.10;;;12.00;99.90;;;;;;4994213;28;20038;-66
2023/10/29 05:27:54;;;;;;;0.88;0.00;;;12.00;99.90;;;;;;5016533;28;20060;-66
2023/10/29 05:30:20;;;;;;;0.00;0.00;;;12.00;99.90;;;;;;5016888;28;20041;-67
2023/10/29 05:32:45;;;;;;;0.00;0.00;;;12.00;99.90;;;;;;4999000;28;20187;-67
2023/10/29 05:35:11;;;;;;;0.00;0.00;;;12.00;99.90;;;;;;5011175;28;20465;-66
2023/10/29 05:37:37;;;;;;;0.20;0.10;;;12.00;99.90;;;;;;5014361;28;20048;-66
2023/10/29 05:40:07;;;;;;;0.10;0.00;;;12.00;99.90;;;;;;5020918;28;20040;-66
2023/10/29 05:42:33;;;;;;;0.00;0.00;;;12.00;99.90;;;;;;5017807;28;20045;-66
2023/10/29 05:44:59;;;;;;;0.77;0.30;;;12.00;99.90;;;;;;5012151;28;20033;-67
2023/10/29 05:47:25;;;;;;;1.50;0.20;;;12.00;99.90;;;;;;4982879;28;20418;-66
2023/10/29 05:49:50;;;;;;;0.00;0.00;;;12.10;99.90;;;;;;5017477;28;20045;-67
2023/10/29 05:52:16;;;;;;;0.00;0.00;;;12.10;99.90;;;;;;5015531;28;20100;-67
2023/10/29 05:54:42;;;;;;;0.30;0.00;;;12.10;99.90;;;;;;5011281;28;20042;-66
2023/10/29 05:57:08;;;;;;;0.05;0.00;;;12.10;99.90;;;;;;5014264;28;20482;-66
2023/10/29 05:59:34;;;;;;;2.50;0.10;;;12.10;99.90;;;;;;5019486;28;20115;-66
2023/10/29 06:01:59;;;;;;;0.10;0.05;;;12.10;99.90;;;;;;5024054;28;20033;-66
2023/10/29 06:04:26;;;;;;;0.45;0.17;;;12.10;99.90;;;;;;5020041;28;20038;-67
2023/10/29 06:06:51;;;;;;;0.20;0.05;;;12.10;99.90;;;;;;5018421;28;20108;-67
2023/10/29 06:09:17;;;;;;;4.57;0.03;;;12.10;99.90;;;;;;5021407;28;20049;-67
2023/10/29 06:11:43;;;;;;;0.00;0.00;;;12.20;99.90;;;;;;5017793;28;20113;-67
2023/10/29 06:14:09;;;;;;;0.00;0.00;;;12.20;99.90;;;;;;5011546;28;20464;-68
2023/10/29 06:16:35;;;;;;;1.90;0.30;;;12.20;99.90;;;;;;5016766;28;20033;-64
2023/10/29 06:19:03;;;;;;;0.13;0.10;;;12.20;99.90;;;;;;5020465;28;20041;-65
2023/10/29 06:21:29;;;;;;;1.17;0.10;;;12.20;99.90;;;;;;5015625;28;20502;-65
2023/10/29 06:23:56;;;;;;;2.13;0.10;;;12.20;99.90;;;;;;5002838;28;20041;-65
2023/10/29 06:26:22;;;;;;;1.75;0.00;;;12.20;99.90;;;;;;5016292;28;20525;-66
2023/10/29 06:28:47;;;;;;;0.52;0.03;;;12.20;99.90;;;;;;5018310;28;20498;-65
2023/10/29 06:31:13;;;;;;;0.00;0.00;;;12.20;99.90;;;;;;5012504;28;20038;-66
2023/10/29 06:33:41;;;;;;;0.00;0.00;;;12.30;99.90;;;;;;5016601;28;20039;-66
2023/10/29 06:36:07;;;;;;;1.00;0.10;;;12.30;99.90;;;;;;5016930;28;20045;-65
2023/10/29 06:38:32;;;;;;;0.43;0.10;;;12.30;99.90;;;;;;5017719;28;20045;-66
2023/10/29 06:40:58;;;;;;;0.00;0.00;;;12.30;99.90;;;;;;5011399;28;20034;-66
2023/10/29 06:43:24;;;;;;;2.80;0.00;;;12.40;99.90;;;;;;5012302;28;20620;-65
2023/10/29 06:45:50;;;;;;;0.65;0.08;;;12.30;99.90;;;;;;5016966;28;20148;-65
2023/10/29 06:48:16;;;;;;;0.00;0.00;;;12.30;99.90;;;;;;5017772;28;20037;-66
2023/10/29 06:50:43;;;;;;;0.00;0.00;;;12.20;99.90;;;;;;5017581;28;20112;-65
2023/10/29 06:53:09;;;;;;;4.60;0.25;;;12.20;99.90;;;;;;5016700;28;20038;-66
2023/10/29 06:55:37;;;;;;;2.85;0.00;;;12.20;99.90;;;;;;5020403;28;20117;-65
2023/10/29 06:58:04;;;;;;;0.10;0.00;;;12.20;99.90;;;;;;5019506;28;20095;-65
2023/10/29 07:00:31;;;;;;;0.22;0.00;;;12.20;99.90;;;;;;5014860;28;20530;-66
2023/10/29 07:02:57;;;;;;;1.23;0.05;;;12.20;99.90;;;;;;5017229;28;20632;-66
2023/10/29 07:05:23;;;;;;;4.15;0.10;;;12.20;99.90;;;;;;5020223;28;20088;-66
2023/10/29 07:07:48;;;;;;;0.25;0.00;;;12.10;99.90;;;;;;5019313;28;20068;-65
2023/10/29 07:10:14;;;;;;;0.08;0.00;;;12.10;99.90;;;;;;5014635;28;20061;-65
2023/10/29 07:12:40;;;;;;;0.20;0.10;;;12.10;99.90;;;;;;5018015;28;20114;-65
2023/10/29 07:15:09;;;;;;;0.43;0.00;;;12.00;99.90;;;;;;5006549;28;20181;-65
2023/10/29 07:17:35;;;;;;;0.00;0.00;;;12.00;99.90;;;;;;5018191;28;20046;-65
2023/10/29 07:20:01;;;;;;;1.35;0.20;;;12.00;99.90;;;;;;5013955;28;20074;-65
2023/10/29 07:22:27;;;;;;;2.22;0.25;;;12.10;99.90;;;;;;5004490;28;20589;-66
2023/10/29 07:24:52;;;;;;;0.10;0.00;;;12.20;99.90;;;;;;5023095;28;20041;-66
2023/10/29 07:27:18;;;;;;;2.20;0.30;;;12.40;99.90;;;;;;5003682;28;20065;-66
2023/10/29 07:29:44;;;;;;;0.10;0.00;;;12.60;99.90;;;;;;5014076;28;20037;-66
2023/10/29 07:32:09;;;;;;;0.10;0.10;;;12.90;99.90;;;;;;5021566;28;20466;-66
2023/10/29 07:34:35;;;;;;;0.65;0.20;;;13.20;99.90;;;;;;5020716;28;20037;-66
2023/10/29 07:37:01;;;;;;;0.17;0.00;;;13.10;99.90;;;;;;5021420;28;20037;-66
2023/10/29 07:39:27;;;;;;;0.00;0.00;;;13.20;99.90;;;;;;5018246;28;20076;-66
2023/10/29 07:41:52;;;;;;;0.10;0.03;;;13.30;99.90;;;;;;5026008;28;20045;-67
2023/10/29 07:44:18;;;;;;;0.00;0.00;;;13.30;99.90;;;;;;5020928;28;20347;-67
2023/10/29 07:46:44;;;;;;;0.00;0.00;;;13.30;99.90;;;;;;5026271;28;20044;-66
2023/10/29 07:49:09;;;;;;;0.00;0.00;;;13.40;99.90;;;;;;5013701;28;20231;-66
2023/10/29 07:51:35;;;;;;;0.08;0.08;;;13.40;99.90;;;;;;4999929;28;20042;-66
2023/10/29 07:54:01;;;;;;;1.25;0.10;;;13.40;99.90;;;;;;5020998;28;20033;-66
2023/10/29 07:56:27;;;;;;;0.00;0.00;;;13.40;99.90;;;;;;5018074;28;20420;-66
2023/10/29 07:58:53;;;;;;;0.00;0.00;;;13.50;99.90;;;;;;5021025;28;20050;-66
2023/10/29 08:01:19;;;;;;;0.03;0.00;;;13.50;99.90;;;;;;5000877;28;20053;-66
2023/10/29 08:03:45;;;;;;;0.63;0.10;;;14.00;99.90;;;;;;5020284;28;20540;-65
2023/10/29 08:06:12;;;;;;;1.48;0.10;;;14.60;99.90;;;;;;5028000;28;20045;-66
2023/10/29 08:08:38;;;;;;;0.65;0.00;;;15.20;99.90;;;;;;5024967;28;20104;-66
2023/10/29 08:11:04;;;;;;;1.63;0.00;;;15.40;99.90;;;;;;5001164;28;20498;-66
2023/10/29 08:13:30;;;;;;;0.22;0.10;;;15.80;99.90;;;;;;5022233;28;20038;-66
2023/10/29 08:15:57;;;;;;;0.10;0.05;;;16.60;99.90;;;;;;5018562;28;20052;-66
2023/10/29 08:18:22;;;;;;;0.00;0.00;;;17.10;99.90;;;;;;5013284;28;20033;-67
2023/10/29 08:20:48;;;;;;;0.00;0.00;;;17.40;99.90;;;;;;5018387;28;20095;-66
2023/10/29 08:23:14;;;;;;;0.05;0.03;;;17.40;99.90;;;;;;5023093;28;20038;-67
2023/10/29 08:25:40;;;;;;;0.10;0.10;;;17.80;99.90;;;;;;5004443;28;20034;-66
2023/10/29 08:28:10;;;;;;;0.08;0.00;;;17.80;99.90;;;;;;5013481;28;20461;-67
2023/10/29 08:30:36;;;;;;;0.00;0.00;;;18.10;99.90;;;;;;5018852;28;20041;-66
2023/10/29 08:33:02;;;;;;;1.17;0.00;;;18.60;99.90;;;;;;5017647;28;20067;-66
2023/10/29 08:35:28;;;;;;;1.92;0.08;;;19.00;99.90;;;;;;5011937;28;20049;-67
2023/10/29 08:37:53;;;;;;;1.17;0.00;;;19.40;99.90;;;;;;5015096;28;20037;-66
2023/10/29 08:40:19;;;;;;;0.00;0.00;;;19.70;99.90;;;;;;5019825;28;20576;-66
2023/10/29 08:42:45;;;;;;;0.00;0.00;;;20.10;99.90;;;;;;5017097;28;20038;-67
2023/10/29 08:45:12;;;;;;;0.00;0.00;;;20.40;99.90;;;;;;5000790;28;20045;-66
2023/10/29 08:47:38;;;;;;;0.05;0.00;;;20.60;99.90;;;;;;5014977;28;20120;-67
2023/10/29 08:50:06;;;;;;;0.00;0.00;;;20.50;99.90;;;;;;5001373;28;20169;-66
2023/10/29 08:52:32;;;;;;;0.10;0.00;;;20.30;99.90;;;;;;5018441;28;20073;-67
2023/10/29 08:54:57;;;;;;;0.85;0.00;;;20.20;99.90;;;;;;5012489;28;20077;-66
2023/10/29 08:57:23;;;;;;;2.30;0.05;;;19.50;99.90;;;;;;5013746;28;20257;-66
2023/10/29 08:59:49;;;;;;;0.00;0.00;;;18.50;99.90;;;;;;5018307;28;20041;-66
2023/10/29 09:02:15;;;;;;;0.82;0.10;;;17.60;99.90;;;;;;5025776;28;20081;-66
2023/10/29 09:04:47;;;;;;;1.38;0.05;;;17.20;99.90;;;;;;5016888;28;20042;-67
2023/10/29 09:07:13;;;;;;;0.00;0.00;;;17.70;99.90;;;;;;5016029;28;20050;-66
2023/10/29 09:09:40;;;;;;;1.30;0.15;;;17.60;99.90;;;;;;5018153;28;20542;-66
2023/10/29 09:12:06;;;;;;;0.05;0.00;;;17.50;99.90;;;;;;5015784;28;20092;-65
2023/10/29 09:14:32;;;;;;;1.45;0.10;;;17.30;99.90;;;;;;5012720;28;20461;-66
2023/10/29 09:16:58;;;;;;;2.95;0.20;;;17.00;99.90;;;;;;5016383;28;20115;-66
2023/10/29 09:19:24;;;;;;;0.10;0.10;;;16.80;99.90;;;;;;5020231;28;20044;-66
2023/10/29 09:21:51;;;;;;;0.88;0.28;;;16.70;99.90;;;;;;5014852;28;20056;-66
2023/10/29 09:24:16;;;;;;;1.40;0.20;;;16.30;99.90;;;;;;5011525;28;20099;-66
2023/10/29 09:26:42;;;;;;;0.17;0.10;;;16.00;99.90;;;;;;5014520;28;20041;-66
2023/10/29 09:29:08;;;;;;;0.20;0.00;;;15.80;99.90;;;;;;5019340;28;20038;-67
2023/10/29 09:31:34;;;;;;;0.75;0.10;;;15.80;99.90;;;;;;4999283;28;20053;-66
2023/10/29 09:34:01;;;;;;;0.95;0.63;;;16.30;99.90;;;;;;5017418;28;20041;-66
2023/10/29 09:36:27;;;;;;;0.45;0.20;;;16.30;99.90;;;;;;5022001;28;20126;-66
2023/10/29 09:38:52;;;;;;;0.10;0.00;;;16.00;99.90;;;;;;5000781;28;20052;-65
2023/10/29 09:41:18;;;;;;;0.80;0.10;;;16.10;99.90;;;;;;5014173;28;20493;-67
2023/10/29 09:43:46;;;;;;;0.20;0.08;;;16.40;99.90;;;;;;5012013;28;20534;-67
2023/10/29 09:46:12;;;;;;;2.40;0.00;;;16.40;99.90;;;;;;5016320;28;20068;-66
2023/10/29 09:48:39;;;;;;;0.93;0.20;;;16.40;99.90;;;;;;5017919;28;20573;-66
2023/10/29 09:51:06;;;;;;;0.80;0.10;;;16.50;99.90;;;;;;4996852;28;20132;-65
2023/10/29 09:53:34;;;;;;;0.77;0.10;;;16.90;99.90;;;;;;5003819;28;20125;-66
2023/10/29 09:56:00;;;;;;;0.35;0.00;;;17.20;99.90;;;;;;5018239;28;20041;-66
2023/10/29 09:58:27;;;;;;;0.10;0.00;;;17.10;99.90;;;;;;5016646;28;20497;-65
2023/10/29 10:00:53;;;;;;;3.40;0.63;;;17.20;99.90;;;;;;5011964;28;20101;-66
2023/10/29 10:03:19;;;;;;;2.08;0.17;;;18.10;99.90;;;;;;4997748;28;20103;-66
2023/10/29 10:05:46;;;;;;;1.95;0.30;;;18.80;99.90;;;;;;4998519;28;20072;-66
2023/10/29 10:08:12;;;;;;;1.65;0.20;;;18.60;99.90;;;;;;4969383;28;20039;-66
2023/10/29 10:10:40;;;;;;;0.25;0.08;;;18.10;99.90;;;;;;5008312;28;20347;-66
2023/10/29 10:13:07;;;;;;;3.38;0.13;;;17.50;99.90;;;;;;5011829;28;20467;-66
2023/10/29 10:15:33;;;;;;;0.38;0.08;;;17.00;99.90;;;;;;4999236;28;20146;-66
2023/10/29 10:18:07;;;;;;;0.75;0.17;;;16.40;99.90;;;;;;5014378;28;21034;-66
2023/10/29 10:20:36;;;;;;;0.05;0.05;;;16.00;99.90;;;;;;5007092;28;20046;-67
2023/10/29 10:23:02;;;;;;;0.93;0.10;;;15.80;99.90;;;;;;5013019;28;20042;-68
2023/10/29 10:25:30;;;;;;;1.35;0.20;;;15.80;99.90;;;;;;5020627;28;20156;-67
2023/10/29 10:27:57;;;;;;;0.00;0.00;;;16.00;99.90;;;;;;4997433;28;20038;-66
2023/10/29 10:30:43;;;;;;;1.33;0.10;;;16.00;99.90;;;;;;5009761;28;20033;-67
2023/10/29 10:33:14;;;;;;;0.93;0.20;;;15.80;99.90;;;;;;5014134;28;20045;-67
2023/10/29 10:35:45;;;;;;;1.05;0.30;;;15.50;99.90;;;;;;5017118;28;20409;-66
2023/10/29 10:38:13;;;;;;;4.18;0.10;;;15.30;99.90;;;;;;5013025;28;20482;-68
2023/10/29 10:40:38;;;;;;;0.60;0.20;;;15.10;99.90;;;;;;5001034;28;20509;-67
2023/10/29 10:43:06;;;;;;;1.42;0.20;;;15.10;99.90;;;;;;4990086;28;20120;-67
2023/10/29 10:45:33;;;;;;;3.03;0.32;;;15.00;99.90;;;;;;4999689;28;20128;-67
2023/10/29 10:48:01;;;;;;;4.05;0.10;;;15.20;99.90;;;;;;4995595;28;20038;-68
2023/10/29 10:50:27;;;;;;;1.73;0.20;;;15.50;99.90;;;;;;4997329;28;20125;-66
2023/10/29 10:52:54;;;;;;;0.10;0.05;;;15.70;99.90;;;;;;5016683;28;20486;-67
2023/10/29 10:55:22;;;;;;;1.50;0.35;;;15.90;99.90;;;;;;5015625;28;20052;-67
2023/10/29 10:57:49;;;;;;;1.58;0.30;;;15.90;99.90;;;;;;5010758;28;20135;-67
2023/10/29 11:00:16;;;;;;;0.45;0.20;;;15.80;99.90;;;;;;4993829;28;20064;-67
2023/10/29 11:02:43;;;;;;;0.13;0.10;;;15.60;99.90;;;;;;5003686;28;20049;-67
2023/10/29 11:05:10;;;;;;;0.13;0.10;;;15.40;99.90;;;;;;5000893;28;20104;-67
2023/10/29 11:07:37;;;;;;;0.82;0.10;;;15.20;99.90;;;;;;5026200;28;20045;-67
2023/10/29 11:10:04;;;;;;;0.00;0.00;;;14.90;99.90;;;;;;4999925;28;20058;-67
2023/10/29 11:12:36;;;;;;;0.73;0.32;;;14.90;99.90;;;;;;5018648;28;20609;-68
2023/10/29 11:15:16;;;;;;;0.15;0.00;;;15.00;99.90;;;;;;5004267;28;20048;-68
2023/10/29 11:17:52;;;;;;;0.17;0.03;;;15.10;99.90;;;;;;4993960;28;20559;-68
2023/10/29 11:20:41;;;;;;;1.33;0.35;;;15.20;99.90;;;;;;5001295;28;20053;-67
2023/10/29 11:23:13;;;;;;;0.38;0.20;;;15.20;99.90;;;;;;4999232;28;20037;-67
2023/10/29 11:25:40;;;;;;;3.33;0.45;;;15.30;99.90;;;;;;5019239;28;20046;-68
2023/10/29 11:28:41;;;;;;;0.43;0.10;;;15.30;99.90;;;;;;5008816;28;20053;-68
2023/10/29 11:31:17;;;;;;;1.30;0.08;;;15.40;99.90;;;;;;4952344;28;20104;-67
2023/10/29 11:34:07;;;;;;;1.77;0.10;;;15.40;99.90;;;;;;5015733;28;20100;-68
2023/10/29 11:36:37;;;;;;;1.75;0.30;;;15.40;99.90;;;;;;4999095;28;20050;-67
2023/10/29 11:39:15;;;;;;;0.80;0.20;;;15.30;99.90;;;;;;5017977;28;20069;-67
2023/10/29 11:41:41;;;;;;;0.57;0.30;;;15.30;99.90;;;;;;5003635;28;20049;-68
2023/10/29 11:44:25;;;;;;;1.10;0.10;;;15.20;99.90;;;;;;5024763;28;20060;-67
2023/10/29 11:47:04;;;;;;;0.20;0.10;;;15.20;99.90;;;;;;4998324;28;20313;-67
2023/10/29 11:49:41;;;;;;;1.48;0.32;;;15.10;99.90;;;;;;5008894;28;20144;-68
2023/10/29 11:52:07;;;;;;;1.95;0.20;;;15.10;99.90;;;;;;5000790;28;20109;-67
2023/10/29 11:54:37;;;;;;;1.50;0.17;;;15.00;99.90;;;;;;4998740;28;20128;-68
2023/10/29 11:57:06;;;;;;;0.75;0.20;;;15.00;99.90;;;;;;4990768;28;20168;-67
2023/10/29 11:59:31;;;;;;;0.45;0.10;;;14.90;99.90;;;;;;4990241;28;20124;-68
2023/10/29 12:01:57;;;;;;;0.70;0.10;;;14.90;99.90;;;;;;5022840;28;20256;-67
2023/10/29 12:04:30;;;;;;;0.40;0.00;;;14.80;99.90;;;;;;5005228;28;20038;-67
2023/10/29 12:06:58;;;;;;;0.22;0.10;;;14.70;99.90;;;;;;5013415;28;20366;-67
2023/10/29 12:09:27;;;;;;;0.47;0.08;;;14.60;99.90;;;;;;5019218;28;20049;-68
2023/10/29 12:11:54;;;;;;;0.10;0.00;;;14.70;99.90;;;;;;5003608;28;20124;-67
2023/10/29 12:14:46;;;;;;;1.45;0.17;;;14.60;99.90;;;;;;4992631;28;20439;-67
2023/10/29 12:17:14;;;;;;;0.15;0.10;;;14.60;99.90;;;;;;4997974;28;20042;-67
2023/10/29 12:19:45;;;;;;;0.00;0.00;;;14.60;99.90;;;;;;5002575;28;20045;-67
2023/10/29 12:22:18;;;;;;;0.63;0.08;;;14.60;99.90;;;;;;5001077;28;20045;-68
2023/10/29 12:24:45;;;;;;;0.00;0.00;;;14.60;99.90;;;;;;4979588;28;20043;-66
2023/10/29 12:27:11;;;;;;;0.82;0.30;;;14.60;99.90;;;;;;4999485;28;20049;-68
2023/10/29 12:29:37;;;;;;;1.35;0.00;;;14.50;99.90;;;;;;5021785;28;20034;-68
2023/10/29 12:32:03;;;;;;;1.90;0.00;;;14.50;99.90;;;;;;5002155;28;20141;-67
2023/10/29 12:34:48;;;;;;;2.90;0.10;;;14.50;99.90;;;;;;4994776;28;20037;-67
2023/10/29 12:37:30;;;;;;;0.28;0.17;;;14.40;99.90;;;;;;4986298;28;20152;-68
2023/10/29 12:40:00;;;;;;;2.47;0.30;;;14.40;99.90;;;;;;5003242;28;20047;-67
2023/10/29 12:42:52;;;;;;;0.00;0.00;;;14.30;99.90;;;;;;5019207;28;20416;-66
2023/10/29 12:45:28;;;;;;;0.10;0.00;;;14.30;99.90;;;;;;5014608;28;20064;-66
2023/10/29 12:48:14;;;;;;;0.25;0.10;;;14.30;99.90;;;;;;4994471;28;20086;-67